createdAt,value
2018-03-03T00:01:49.978Z,70.87
2018-03-03T00:03:52.428Z,70.71
2018-03-03T00:05:54.909Z,70.87
2018-03-03T00:07:57.393Z,71.52
2018-03-03T00:09:59.834Z,71.43
2018-03-03T00:12:02.328Z,71.58
2018-03-03T00:14:04.794Z,71.90
2018-03-03T00:16:07.249Z,72.57
2018-03-03T00:18:09.772Z,72.75
2018-03-03T00:20:12.368Z,72.83
2018-03-03T00:24:53.591Z,73.32
2018-03-03T00:26:56.019Z,73.58
2018-03-03T00:28:58.567Z,73.99
2018-03-03T00:31:01.162Z,73.80
2018-03-03T00:33:03.648Z,74.18
2018-03-03T00:35:06.147Z,74.25
2018-03-03T00:37:08.744Z,74.27
2018-03-03T00:39:11.192Z,74.69
2018-03-03T00:41:13.667Z,74.66
2018-03-03T00:43:16.173Z,74.71
2018-03-03T00:45:18.717Z,75.13
2018-03-03T00:47:21.202Z,73.63
2018-03-03T00:49:23.701Z,73.38
2018-03-03T00:51:26.193Z,73.24
2018-03-03T00:53:28.703Z,73.25
2018-03-03T00:55:31.217Z,72.51
2018-03-03T00:57:33.729Z,72.22
2018-03-03T00:59:36.165Z,72.21
2018-03-03T01:01:38.659Z,71.70
2018-03-03T01:03:41.152Z,71.32
2018-03-03T01:05:43.647Z,71.22
2018-03-03T01:07:46.107Z,71.00
2018-03-03T01:09:48.632Z,70.45
2018-03-03T01:11:51.133Z,70.14
2018-03-03T01:13:53.614Z,69.91
2018-03-03T01:15:56.119Z,70.34
2018-03-03T01:17:58.704Z,70.13
2018-03-03T01:20:01.197Z,70.51
2018-03-03T01:22:03.793Z,70.24
2018-03-03T01:24:06.243Z,71.39
2018-03-03T01:26:08.712Z,71.12
2018-03-03T01:28:11.178Z,71.43
2018-03-03T01:30:13.668Z,71.49
2018-03-03T01:32:16.125Z,71.74
2018-03-03T01:34:18.699Z,72.30
2018-03-03T01:36:21.163Z,72.03
2018-03-03T01:38:23.635Z,72.05
2018-03-03T01:40:26.208Z,71.75
2018-03-03T01:42:28.728Z,72.04
2018-03-03T01:44:31.218Z,71.93
2018-03-03T01:46:33.685Z,71.27
2018-03-03T01:48:36.207Z,71.60
2018-03-03T01:50:38.695Z,72.07
2018-03-03T01:52:41.153Z,72.07
2018-03-03T01:54:43.600Z,72.02
2018-03-03T01:56:46.179Z,71.61
2018-03-03T01:58:48.680Z,70.54
2018-03-03T02:00:51.173Z,70.50
2018-03-03T02:02:53.770Z,69.98
2018-03-03T02:04:56.264Z,70.22
2018-03-03T02:06:58.700Z,70.11
2018-03-03T02:09:01.238Z,70.35
2018-03-03T02:11:03.733Z,70.73
2018-03-03T02:13:06.243Z,70.66
2018-03-03T02:15:08.833Z,70.77
2018-03-03T02:17:11.424Z,71.04
2018-03-03T02:19:13.855Z,71.73
2018-03-03T02:21:16.336Z,71.78
2018-03-03T02:23:18.780Z,73.10
2018-03-03T02:25:21.281Z,72.34
2018-03-03T02:27:23.743Z,72.73
2018-03-03T02:29:26.269Z,72.61
2018-03-03T02:31:28.761Z,72.69
2018-03-03T02:33:31.206Z,72.74
2018-03-03T02:35:33.750Z,72.81
2018-03-03T02:37:36.349Z,73.07
2018-03-03T02:39:38.815Z,73.32
2018-03-03T02:41:41.335Z,73.50
2018-03-03T02:43:43.786Z,73.55
2018-03-03T02:45:46.258Z,73.15
2018-03-03T02:47:48.913Z,73.70
2018-03-03T02:49:51.390Z,74.31
2018-03-03T02:51:53.830Z,73.45
2018-03-03T02:53:56.391Z,73.80
2018-03-03T02:55:58.996Z,73.54
2018-03-03T02:58:01.480Z,73.52
2018-03-03T03:00:03.941Z,72.96
2018-03-03T03:02:06.411Z,73.41
2018-03-03T03:04:08.889Z,72.83
2018-03-03T03:06:11.357Z,72.88
2018-03-03T03:08:13.818Z,72.69
2018-03-03T03:10:16.342Z,72.75
2018-03-03T03:12:18.818Z,72.78
2018-03-03T03:14:21.289Z,72.93
2018-03-03T03:16:23.739Z,73.13
2018-03-03T03:18:26.265Z,73.53
2018-03-03T03:20:28.716Z,73.82
2018-03-03T03:22:31.237Z,73.81
2018-03-03T03:24:33.701Z,73.72
2018-03-03T03:26:36.196Z,73.75
2018-03-03T03:28:38.783Z,74.04
2018-03-03T03:30:41.267Z,74.34
2018-03-03T03:32:43.864Z,74.51
2018-03-03T03:34:46.330Z,73.82
2018-03-03T03:36:48.789Z,74.10
2018-03-03T03:38:51.303Z,73.99
2018-03-03T03:40:53.740Z,73.35
2018-03-03T03:42:56.181Z,73.32
2018-03-03T03:44:58.640Z,74.01
2018-03-03T03:47:01.210Z,73.61
2018-03-03T03:49:03.807Z,73.72
2018-03-03T03:51:06.401Z,74.24
2018-03-03T03:53:08.855Z,74.28
2018-03-03T03:55:11.305Z,74.64
2018-03-03T03:57:13.808Z,74.54
2018-03-03T03:59:16.276Z,75.05
2018-03-03T04:01:18.800Z,74.92
2018-03-03T04:03:21.256Z,75.22
2018-03-03T04:05:23.706Z,75.33
2018-03-03T04:07:26.247Z,75.15
2018-03-03T04:09:28.736Z,75.22
2018-03-03T04:11:31.160Z,74.85
2018-03-03T04:13:33.730Z,75.09
2018-03-03T04:15:36.229Z,74.84
2018-03-03T04:17:38.819Z,74.70
2018-03-03T04:19:41.307Z,74.90
2018-03-03T04:21:43.812Z,75.12
2018-03-03T04:23:46.291Z,75.25
2018-03-03T04:25:48.757Z,75.23
2018-03-03T04:27:51.201Z,75.42
2018-03-03T04:29:53.701Z,75.82
2018-03-03T04:31:56.164Z,76.05
2018-03-03T04:33:58.634Z,75.99
2018-03-03T04:36:01.115Z,75.74
2018-03-03T04:38:03.641Z,75.49
2018-03-03T04:40:06.140Z,75.73
2018-03-03T04:42:08.616Z,75.68
2018-03-03T04:44:11.063Z,75.48
2018-03-03T04:46:13.571Z,75.38
2018-03-03T04:48:16.072Z,75.04
2018-03-03T04:50:18.601Z,75.16
2018-03-03T04:52:21.040Z,75.30
2018-03-03T04:54:23.515Z,75.83
2018-03-03T04:56:25.985Z,75.24
2018-03-03T04:58:33.081Z,75.31
2018-03-03T05:00:36.432Z,75.57
2018-03-03T05:02:42.507Z,75.52
2018-03-03T05:04:50.431Z,75.12
2018-03-03T05:09:30.576Z,75.18
2018-03-03T05:11:33.062Z,74.86
2018-03-03T05:13:36.410Z,74.62
2018-03-03T05:15:44.396Z,74.75
2018-03-03T05:18:02.641Z,74.35
2018-03-03T05:20:10.817Z,75.15
2018-03-03T05:22:19.004Z,74.85
2018-03-03T05:24:36.318Z,75.02
2018-03-03T05:26:44.446Z,74.44
2018-03-03T05:28:53.281Z,74.37
2018-03-03T05:31:01.307Z,74.61
2018-03-03T05:33:09.256Z,74.51
2018-03-03T05:35:30.586Z,74.83
2018-03-03T05:37:39.772Z,74.72
2018-03-03T05:39:47.817Z,74.80
2018-03-03T05:41:55.811Z,74.99
2018-03-03T05:44:03.871Z,74.96
2018-03-03T05:46:26.163Z,75.28
2018-03-03T05:48:34.182Z,74.80
2018-03-03T05:50:42.387Z,74.96
2018-03-03T05:55:34.963Z,75.70
2018-03-03T05:57:43.010Z,75.40
2018-03-03T05:59:51.120Z,74.77
2018-03-03T06:01:59.133Z,75.38
2018-03-03T06:04:06.593Z,73.93
2018-03-03T06:06:24.673Z,74.28
2018-03-03T06:08:44.778Z,74.01
2018-03-03T06:10:49.851Z,74.76
2018-03-03T06:12:52.318Z,74.50
2018-03-03T06:14:54.853Z,74.81
2018-03-03T06:16:57.307Z,74.06
2018-03-03T06:18:59.818Z,73.83
2018-03-03T06:21:02.288Z,73.59
2018-03-03T06:23:04.736Z,73.41
2018-03-03T06:25:07.323Z,73.52
2018-03-03T06:27:10.232Z,73.32
2018-03-03T06:29:12.711Z,73.40
2018-03-03T06:31:15.137Z,72.89
2018-03-03T06:33:17.674Z,72.71
2018-03-03T06:35:20.129Z,72.66
2018-03-03T06:37:22.652Z,72.48
2018-03-03T06:39:25.103Z,72.39
2018-03-03T06:41:27.582Z,72.74
2018-03-03T06:43:30.166Z,72.39
2018-03-03T06:45:32.657Z,72.20
2018-03-03T06:47:35.228Z,72.02
2018-03-03T06:49:37.659Z,71.72
2018-03-03T06:51:40.112Z,72.34
2018-03-03T06:53:42.628Z,71.56
2018-03-03T06:55:45.231Z,70.57
2018-03-03T06:57:47.732Z,70.24
2018-03-03T06:59:50.192Z,70.13
2018-03-03T07:01:52.652Z,70.51
2018-03-03T07:03:55.138Z,70.29
2018-03-03T07:05:57.604Z,70.02
2018-03-03T07:08:00.117Z,70.07
2018-03-03T07:10:02.613Z,70.28
2018-03-03T07:12:05.062Z,69.55
2018-03-03T07:14:07.557Z,68.70
2018-03-03T07:16:10.093Z,69.47
2018-03-03T07:18:12.629Z,68.63
2018-03-03T07:20:15.066Z,69.27
2018-03-03T07:22:17.627Z,69.52
2018-03-03T07:24:20.062Z,68.89
2018-03-03T07:26:22.537Z,68.40
2018-03-03T07:28:25.159Z,68.16
2018-03-03T07:30:27.712Z,67.95
2018-03-03T07:32:30.185Z,67.23
2018-03-03T07:34:32.663Z,67.92
2018-03-03T07:36:35.129Z,68.62
2018-03-03T07:38:37.703Z,67.81
2018-03-03T07:40:40.165Z,67.36
2018-03-03T07:42:42.650Z,67.79
2018-03-03T07:44:45.142Z,67.18
2018-03-03T07:46:47.563Z,67.62
2018-03-03T07:48:50.030Z,67.53
2018-03-03T07:50:52.538Z,66.92
2018-03-03T07:52:55.027Z,66.09
2018-03-03T07:54:57.534Z,66.92
2018-03-03T07:57:12.788Z,67.01
2018-03-03T07:59:15.314Z,66.52
2018-03-03T08:01:17.782Z,66.11
2018-03-03T08:03:20.294Z,67.09
2018-03-03T08:05:22.728Z,66.03
2018-03-03T08:07:25.200Z,65.62
2018-03-03T08:09:27.656Z,66.26
2018-03-03T08:11:30.158Z,65.66
2018-03-03T08:13:32.743Z,65.50
2018-03-03T08:15:35.250Z,65.92
2018-03-03T08:17:37.759Z,65.17
2018-03-03T08:19:40.231Z,65.88
2018-03-03T08:21:42.728Z,65.65
2018-03-03T08:23:45.208Z,65.24
2018-03-03T08:25:47.721Z,65.66
2018-03-03T08:27:50.219Z,64.39
2018-03-03T08:29:52.707Z,64.47
2018-03-03T08:31:55.189Z,64.15
2018-03-03T08:33:57.693Z,64.33
2018-03-03T08:36:00.185Z,64.12
2018-03-03T08:38:02.675Z,63.40
2018-03-03T08:40:05.278Z,63.99
2018-03-03T08:42:07.767Z,64.24
2018-03-03T08:44:10.268Z,63.69
2018-03-03T08:46:12.749Z,64.05
2018-03-03T08:48:15.235Z,63.50
2018-03-03T08:50:17.728Z,63.87
2018-03-03T08:52:20.325Z,64.14
2018-03-03T08:54:22.821Z,64.55
2018-03-03T08:56:25.285Z,63.31
2018-03-03T08:58:27.975Z,62.34
2018-03-03T09:00:30.435Z,63.02
2018-03-03T09:02:32.900Z,63.14
2018-03-03T09:04:35.415Z,61.87
2018-03-03T09:06:37.911Z,61.54
2018-03-03T09:08:40.405Z,61.59
2018-03-03T09:10:42.899Z,62.92
2018-03-03T09:12:45.359Z,61.79
2018-03-03T09:14:47.956Z,62.23
2018-03-03T09:16:50.561Z,60.80
2018-03-03T09:18:53.052Z,60.84
2018-03-03T09:20:55.528Z,60.36
2018-03-03T09:22:58.138Z,61.44
2018-03-03T09:25:00.574Z,60.49
2018-03-03T09:27:03.028Z,60.99
2018-03-03T09:29:05.537Z,60.86
2018-03-03T09:31:08.054Z,62.39
2018-03-03T09:33:10.510Z,60.61
2018-03-03T09:35:12.995Z,60.93
2018-03-03T09:37:15.492Z,61.63
2018-03-03T09:39:17.976Z,61.25
2018-03-03T09:41:20.440Z,61.40
2018-03-03T09:43:22.907Z,61.14
2018-03-03T09:45:25.373Z,60.56
2018-03-03T09:47:27.869Z,60.85
2018-03-03T09:49:30.413Z,60.60
2018-03-03T09:51:32.916Z,60.77
2018-03-03T09:53:35.418Z,59.98
2018-03-03T09:55:37.890Z,59.25
2018-03-03T09:57:40.516Z,60.18
2018-03-03T09:59:43.014Z,58.39
2018-03-03T10:01:52.159Z,59.23
2018-03-03T10:03:47.982Z,58.93
2018-03-03T10:05:50.566Z,59.62
2018-03-03T10:07:53.024Z,59.72
2018-03-03T10:09:55.506Z,58.65
2018-03-03T10:11:57.946Z,58.82
2018-03-03T10:14:00.420Z,58.51
2018-03-03T10:16:02.915Z,58.38
2018-03-03T10:18:05.402Z,58.93
2018-03-03T10:20:07.923Z,58.29
2018-03-03T10:22:10.436Z,59.07
2018-03-03T10:24:12.917Z,58.82
2018-03-03T10:26:15.413Z,59.03
2018-03-03T10:28:17.866Z,58.50
2018-03-03T10:30:20.356Z,58.35
2018-03-03T10:32:22.867Z,57.34
2018-03-03T10:34:25.396Z,58.00
2018-03-03T10:36:27.912Z,58.09
2018-03-03T10:38:30.457Z,57.80
2018-03-03T10:40:32.973Z,58.51
2018-03-03T10:42:35.441Z,57.46
2018-03-03T10:44:37.972Z,58.13
2018-03-03T10:46:40.564Z,57.06
2018-03-03T10:48:43.065Z,57.90
2018-03-03T10:50:45.576Z,56.84
2018-03-03T10:52:48.084Z,57.48
2018-03-03T10:54:50.626Z,57.02
2018-03-03T10:56:53.095Z,57.33
2018-03-03T10:58:55.586Z,57.29
2018-03-03T11:00:58.109Z,57.20
2018-03-03T11:03:00.624Z,56.55
2018-03-03T11:05:03.067Z,56.93
2018-03-03T11:07:05.566Z,56.26
2018-03-03T11:09:08.088Z,56.36
2018-03-03T11:11:10.549Z,57.14
2018-03-03T11:13:13.070Z,57.18
2018-03-03T11:15:15.688Z,57.07
2018-03-03T11:17:18.194Z,56.50
2018-03-03T11:19:20.734Z,56.21
2018-03-03T11:21:24.271Z,56.68
2018-03-03T11:23:26.766Z,56.78
2018-03-03T11:25:29.247Z,57.15
2018-03-03T11:27:31.774Z,57.64
2018-03-03T11:29:34.278Z,57.26
2018-03-03T11:31:36.748Z,56.58
2018-03-03T11:33:39.238Z,57.13
2018-03-03T11:35:41.688Z,57.19
2018-03-03T11:37:44.216Z,57.39
2018-03-03T11:39:46.691Z,57.00
2018-03-03T11:41:49.165Z,57.27
2018-03-03T11:43:51.670Z,56.55
2018-03-03T11:45:54.130Z,56.61
2018-03-03T11:47:56.637Z,56.77
2018-03-03T11:49:59.150Z,54.96
2018-03-03T11:52:01.652Z,56.74
2018-03-03T11:54:04.103Z,55.17
2018-03-03T11:56:06.568Z,55.72
2018-03-03T11:58:09.046Z,54.97
2018-03-03T12:00:11.559Z,55.94
2018-03-03T12:02:14.042Z,55.97
2018-03-03T12:04:16.497Z,55.37
2018-03-03T12:06:19.017Z,55.11
2018-03-03T12:08:21.521Z,54.98
2018-03-03T12:10:24.016Z,55.12
2018-03-03T12:12:26.462Z,55.29
2018-03-03T12:14:28.995Z,54.50
2018-03-03T12:16:31.498Z,54.75
2018-03-03T12:18:33.972Z,55.04
2018-03-03T12:20:36.412Z,56.05
2018-03-03T12:22:38.931Z,55.00
2018-03-03T12:24:41.462Z,55.44
2018-03-03T12:26:43.972Z,54.09
2018-03-03T12:28:46.481Z,53.94
2018-03-03T12:30:49.033Z,54.65
2018-03-03T12:32:51.518Z,54.10
2018-03-03T12:34:54.032Z,53.17
2018-03-03T12:36:56.545Z,54.09
2018-03-03T12:38:58.988Z,54.24
2018-03-03T12:41:01.474Z,54.37
2018-03-03T12:43:03.957Z,54.29
2018-03-03T12:45:06.439Z,54.52
2018-03-03T12:47:09.004Z,53.73
2018-03-03T12:49:11.504Z,53.86
2018-03-03T12:51:14.008Z,53.49
2018-03-03T12:53:16.561Z,54.47
2018-03-03T12:55:19.033Z,54.65
2018-03-03T12:57:21.524Z,54.29
2018-03-03T12:59:24.008Z,54.57
2018-03-03T13:01:26.549Z,54.18
2018-03-03T13:03:29.128Z,53.89
2018-03-03T13:05:31.632Z,53.69
2018-03-03T13:07:34.214Z,53.90
2018-03-03T13:09:36.664Z,53.55
2018-03-03T13:11:39.140Z,53.62
2018-03-03T13:13:41.645Z,53.59
2018-03-03T13:15:44.094Z,53.28
2018-03-03T13:17:46.603Z,53.20
2018-03-03T13:19:49.174Z,54.36
2018-03-03T13:21:51.772Z,53.93
2018-03-03T13:23:54.277Z,53.66
2018-03-03T13:25:56.802Z,53.87
2018-03-03T13:27:59.274Z,53.08
2018-03-03T13:30:01.865Z,52.66
2018-03-03T13:32:04.323Z,53.56
2018-03-03T13:34:06.848Z,53.94
2018-03-03T13:36:10.613Z,53.72
2018-03-03T13:38:13.277Z,53.53
2018-03-03T13:40:15.766Z,53.54
2018-03-03T13:42:18.281Z,53.05
2018-03-03T13:44:20.830Z,54.38
2018-03-03T13:46:23.428Z,53.82
2018-03-03T13:48:25.930Z,54.23
2018-03-03T13:50:28.450Z,53.68
2018-03-03T13:52:31.020Z,54.65
2018-03-03T13:54:33.514Z,55.16
2018-03-03T13:56:35.978Z,54.71
2018-03-03T13:58:38.506Z,54.58
2018-03-03T14:00:40.975Z,54.61
2018-03-03T14:02:43.476Z,54.84
2018-03-03T14:04:46.075Z,53.79
2018-03-03T14:06:48.616Z,54.71
2018-03-03T14:08:51.164Z,54.13
2018-03-03T14:10:53.670Z,54.62
2018-03-03T14:12:56.145Z,54.31
2018-03-03T14:14:58.661Z,54.07
2018-03-03T14:17:01.240Z,54.26
2018-03-03T14:19:03.782Z,54.60
2018-03-03T14:21:06.268Z,55.06
2018-03-03T14:23:08.814Z,54.45
2018-03-03T14:25:11.410Z,54.87
2018-03-03T14:27:13.878Z,54.79
2018-03-03T14:29:16.463Z,54.77
2018-03-03T14:31:18.914Z,55.36
2018-03-03T14:33:21.465Z,54.44
2018-03-03T14:35:23.955Z,54.73
2018-03-03T14:37:26.491Z,54.83
2018-03-03T14:39:29.073Z,54.42
2018-03-03T14:41:31.561Z,54.39
2018-03-03T14:43:34.134Z,54.09
2018-03-03T14:45:36.619Z,54.64
2018-03-03T14:47:39.116Z,54.62
2018-03-03T14:49:41.635Z,54.65
2018-03-03T14:51:44.235Z,53.61
2018-03-03T14:53:46.713Z,54.27
2018-03-03T14:55:49.233Z,54.17
2018-03-03T14:57:51.755Z,53.14
2018-03-03T14:59:54.220Z,52.85
2018-03-03T15:01:56.799Z,52.65
2018-03-03T15:03:59.398Z,53.97
2018-03-03T15:06:01.944Z,52.27
2018-03-03T15:08:04.415Z,53.19
2018-03-03T15:10:06.889Z,53.18
2018-03-03T15:12:09.393Z,53.19
2018-03-03T15:14:12.808Z,52.50
2018-03-03T15:16:15.308Z,52.71
2018-03-03T15:18:17.842Z,53.79
2018-03-03T15:20:20.354Z,53.57
2018-03-03T15:22:22.874Z,52.11
2018-03-03T15:24:25.510Z,53.12
2018-03-03T15:26:27.994Z,52.52
2018-03-03T15:28:30.482Z,52.17
2018-03-03T15:30:32.981Z,52.54
2018-03-03T15:32:35.454Z,52.55
2018-03-03T15:34:38.038Z,52.60
2018-03-03T15:36:40.704Z,52.91
2018-03-03T15:38:43.180Z,52.73
2018-03-03T15:40:45.646Z,53.11
2018-03-03T15:42:48.139Z,53.50
2018-03-03T15:44:50.678Z,53.35
2018-03-03T15:46:53.261Z,54.02
2018-03-03T15:48:55.875Z,52.55
2018-03-03T15:50:58.482Z,52.89
2018-03-03T15:53:00.972Z,52.75
2018-03-03T15:55:03.485Z,53.00
2018-03-03T15:57:06.065Z,52.72
2018-03-03T15:59:08.545Z,53.00
2018-03-03T16:01:11.028Z,52.82
2018-03-03T16:03:13.754Z,52.39
2018-03-03T16:05:16.338Z,53.27
2018-03-03T16:07:18.841Z,52.27
2018-03-03T16:09:21.427Z,53.36
2018-03-03T16:11:23.890Z,53.18
2018-03-03T16:13:26.511Z,53.07
2018-03-03T16:15:29.010Z,52.69
2018-03-03T16:17:31.607Z,53.20
2018-03-03T16:19:34.103Z,52.15
2018-03-03T16:21:36.604Z,51.40
2018-03-03T16:23:39.061Z,52.00
2018-03-03T16:25:41.578Z,51.27
2018-03-03T16:27:44.069Z,52.18
2018-03-03T16:29:46.629Z,52.13
2018-03-03T16:31:49.140Z,50.40
2018-03-03T16:33:51.615Z,50.56
2018-03-03T16:35:54.192Z,50.44
2018-03-03T16:37:56.701Z,51.38
2018-03-03T16:39:59.265Z,52.41
2018-03-03T16:42:01.751Z,51.43
2018-03-03T16:44:04.288Z,51.44
2018-03-03T16:46:06.760Z,52.43
2018-03-03T16:48:09.284Z,51.19
2018-03-03T16:50:11.782Z,51.98
2018-03-03T16:52:14.294Z,51.39
2018-03-03T16:54:16.760Z,53.40
2018-03-03T16:56:19.236Z,51.53
2018-03-03T16:58:22.611Z,52.11
2018-03-03T17:00:25.286Z,52.55
2018-03-03T17:02:27.794Z,52.68
2018-03-03T17:04:30.282Z,51.63
2018-03-03T17:06:32.845Z,51.73
2018-03-03T17:08:35.305Z,51.52
2018-03-03T17:10:37.860Z,51.32
2018-03-03T17:12:40.356Z,52.20
2018-03-03T17:14:42.972Z,51.36
2018-03-03T17:16:45.492Z,50.82
2018-03-03T17:18:47.968Z,52.80
2018-03-03T17:20:50.543Z,51.14
2018-03-03T17:22:53.036Z,53.39
2018-03-03T17:24:55.615Z,58.84
2018-03-03T17:26:58.068Z,63.51
2018-03-03T17:29:00.599Z,65.26
2018-03-03T17:31:03.194Z,66.27
2018-03-03T17:33:05.694Z,66.33
2018-03-03T17:35:08.154Z,67.02
2018-03-03T17:37:10.730Z,65.66
2018-03-03T17:39:13.191Z,64.10
2018-03-03T17:41:15.705Z,63.81
2018-03-03T17:43:18.185Z,65.69
2018-03-03T17:45:20.675Z,65.49
2018-03-03T17:47:23.209Z,66.33
2018-03-03T17:49:25.721Z,66.33
2018-03-03T17:51:28.255Z,65.81
2018-03-03T17:53:30.772Z,65.04
2018-03-03T17:55:33.415Z,65.08
2018-03-03T17:57:36.012Z,64.21
2018-03-03T17:59:38.475Z,64.93
2018-03-03T18:01:41.000Z,64.77
2018-03-03T18:03:43.494Z,65.28
2018-03-03T18:05:46.023Z,66.92
2018-03-03T18:07:48.561Z,69.09
2018-03-03T18:09:51.096Z,71.03
2018-03-03T18:11:59.619Z,72.27
2018-03-03T18:14:02.090Z,72.87
2018-03-03T18:16:04.696Z,73.14
2018-03-03T18:18:07.156Z,73.23
2018-03-03T18:20:09.690Z,73.49
2018-03-03T18:22:12.155Z,73.99
2018-03-03T18:24:26.534Z,74.89
2018-03-03T18:26:29.148Z,76.32
2018-03-03T18:28:31.621Z,77.60
2018-03-03T18:30:34.162Z,79.15
2018-03-03T18:32:36.682Z,79.28
2018-03-03T18:34:39.366Z,79.89
2018-03-03T18:36:41.859Z,79.90
2018-03-03T18:38:44.381Z,79.40
2018-03-03T18:40:46.983Z,79.79
2018-03-03T18:42:49.432Z,79.43
2018-03-03T18:44:52.097Z,79.42
2018-03-03T18:46:54.782Z,79.58
2018-03-03T18:48:57.357Z,79.52
2018-03-03T18:50:59.835Z,78.07
2018-03-03T18:53:02.348Z,77.88
2018-03-03T18:55:04.862Z,78.13
2018-03-03T18:57:07.374Z,78.35
2018-03-03T18:59:09.906Z,78.30
2018-03-03T19:01:12.396Z,78.20
2018-03-03T19:03:14.926Z,78.40
2018-03-03T19:05:17.378Z,78.41
2018-03-03T19:07:19.914Z,78.30
2018-03-03T19:09:22.452Z,78.63
2018-03-03T19:11:24.911Z,78.94
2018-03-03T19:13:27.418Z,79.46
2018-03-03T19:15:31.076Z,79.82
2018-03-03T19:17:33.578Z,79.84
2018-03-03T19:19:36.205Z,79.19
2018-03-03T19:21:38.758Z,79.08
2018-03-03T19:23:41.292Z,78.71
2018-03-03T19:25:43.824Z,78.34
2018-03-03T19:27:46.354Z,79.12
2018-03-03T19:29:48.874Z,78.63
2018-03-03T19:31:51.383Z,76.89
2018-03-03T19:33:53.939Z,77.29
2018-03-03T19:35:56.429Z,77.04
2018-03-03T19:37:58.882Z,77.15
2018-03-03T19:40:01.378Z,77.35
2018-03-03T19:42:03.939Z,77.82
2018-03-03T19:44:06.456Z,77.75
2018-03-03T19:46:08.997Z,76.71
2018-03-03T19:48:11.639Z,77.14
2018-03-03T19:50:14.124Z,76.82
2018-03-03T19:52:16.597Z,76.70
2018-03-03T19:54:19.097Z,77.03
2018-03-03T19:56:21.588Z,76.69
2018-03-03T19:58:24.159Z,77.02
2018-03-03T20:00:26.672Z,76.03
2018-03-03T20:02:29.162Z,76.11
2018-03-03T20:04:31.768Z,75.62
2018-03-03T20:06:34.269Z,75.63
2018-03-03T20:08:37.672Z,74.87
2018-03-03T20:10:40.270Z,74.31
2018-03-03T20:12:42.824Z,74.67
2018-03-03T20:14:45.342Z,73.96
2018-03-03T20:16:47.889Z,74.31
2018-03-03T20:18:50.345Z,73.00
2018-03-03T20:20:52.911Z,73.66
2018-03-03T20:22:55.367Z,73.09
2018-03-03T20:24:57.862Z,72.81
2018-03-03T20:27:00.353Z,71.42
2018-03-03T20:29:02.883Z,71.77
2018-03-03T20:31:05.518Z,70.51
2018-03-03T20:33:09.060Z,71.61
2018-03-03T20:35:11.579Z,70.81
2018-03-03T20:37:14.219Z,70.29
2018-03-03T20:39:16.726Z,69.93
2018-03-03T20:41:19.290Z,70.93
2018-03-03T20:43:21.863Z,70.31
2018-03-03T20:45:24.359Z,70.41
2018-03-03T20:47:26.893Z,69.84
2018-03-03T20:49:29.413Z,71.31
2018-03-03T20:51:31.879Z,71.44
2018-03-03T20:53:34.354Z,71.17
2018-03-03T20:55:36.878Z,71.02
2018-03-03T20:57:39.375Z,70.68
2018-03-03T20:59:41.845Z,71.34
2018-03-03T21:01:44.359Z,70.92
2018-03-03T21:03:46.915Z,70.59
2018-03-03T21:05:49.464Z,70.46
2018-03-03T21:07:51.944Z,68.89
2018-03-03T21:09:54.473Z,68.68
2018-03-03T21:12:02.428Z,68.93
2018-03-03T21:14:04.927Z,67.31
2018-03-03T21:16:07.413Z,67.78
2018-03-03T21:18:09.953Z,66.98
2018-03-03T21:20:12.484Z,66.95
2018-03-03T21:22:15.010Z,67.33
2018-03-03T21:24:17.604Z,65.64
2018-03-03T21:26:20.088Z,66.33
2018-03-03T21:28:22.558Z,66.62
2018-03-03T21:30:25.060Z,66.66
2018-03-03T21:32:27.578Z,65.72
2018-03-03T21:34:30.269Z,66.14
2018-03-03T21:36:32.873Z,66.36
2018-03-03T21:38:35.375Z,66.00
2018-03-03T21:40:37.874Z,66.16
2018-03-03T21:42:40.445Z,66.11
2018-03-03T21:44:42.954Z,65.69
2018-03-03T21:46:45.459Z,66.01
2018-03-03T21:48:47.939Z,66.03
2018-03-03T21:50:50.467Z,66.09
2018-03-03T21:52:53.026Z,65.98
2018-03-03T21:54:55.540Z,65.73
2018-03-03T21:56:58.044Z,65.66
2018-03-03T21:59:00.563Z,65.03
2018-03-03T22:01:03.050Z,65.28
2018-03-03T22:03:05.570Z,65.74
2018-03-03T22:05:08.143Z,66.01
2018-03-03T22:07:11.593Z,66.11
2018-03-03T22:09:14.075Z,65.54
2018-03-03T22:11:16.577Z,65.56
2018-03-03T22:13:19.151Z,65.82
2018-03-03T22:15:21.668Z,65.74
2018-03-03T22:17:24.252Z,66.17
2018-03-03T22:19:26.849Z,66.42
2018-03-03T22:21:29.310Z,66.20
2018-03-03T22:23:31.790Z,66.81
2018-03-03T22:25:34.320Z,66.88
2018-03-03T22:27:36.921Z,67.30
2018-03-03T22:29:39.425Z,67.22
2018-03-03T22:31:41.959Z,67.15
2018-03-03T22:33:44.478Z,67.55
2018-03-03T22:35:46.945Z,67.69
2018-03-03T22:37:49.414Z,67.56
2018-03-03T22:39:51.945Z,67.37
2018-03-03T22:41:54.474Z,66.75
2018-03-03T22:43:56.956Z,67.02
2018-03-03T22:45:59.429Z,67.30
2018-03-03T22:48:01.959Z,67.52
2018-03-03T22:50:04.430Z,67.02
2018-03-03T22:52:06.946Z,67.77
2018-03-03T22:54:09.558Z,66.31
2018-03-03T22:56:12.220Z,66.23
2018-03-03T22:58:14.844Z,65.60
2018-03-03T23:00:17.309Z,65.75
2018-03-03T23:02:19.826Z,65.40
2018-03-03T23:04:22.371Z,65.14
2018-03-03T23:06:24.868Z,64.95
2018-03-03T23:08:27.355Z,64.92
2018-03-03T23:10:29.849Z,63.95
2018-03-03T23:12:32.323Z,64.16
2018-03-03T23:14:34.830Z,64.12
2018-03-03T23:16:37.290Z,63.98
2018-03-03T23:18:39.820Z,64.47
2018-03-03T23:20:42.356Z,63.85
2018-03-03T23:22:44.910Z,63.71
2018-03-03T23:24:47.555Z,63.09
2018-03-03T23:26:50.010Z,62.93
2018-03-03T23:28:52.532Z,63.31
2018-03-03T23:30:55.019Z,62.80
2018-03-03T23:32:57.520Z,62.98
2018-03-03T23:34:59.989Z,63.63
2018-03-03T23:37:02.510Z,63.39
2018-03-03T23:39:05.004Z,63.57
2018-03-03T23:41:07.465Z,63.30
2018-03-03T23:43:09.991Z,63.47
2018-03-03T23:45:12.467Z,62.41
2018-03-03T23:47:14.950Z,62.84
2018-03-03T23:49:17.434Z,62.63
2018-03-03T23:51:19.946Z,62.67
2018-03-03T23:53:23.811Z,63.05
2018-03-03T23:55:26.280Z,63.73
2018-03-03T23:57:28.874Z,62.94
2018-03-03T23:59:31.405Z,62.98
